createdAt,value
2022-12-16T00:01:42.597Z,54777.66
2022-12-16T00:04:13.117Z,54809.50
2022-12-16T00:06:41.647Z,54743.84
2022-12-16T00:09:10.290Z,54827.38
2022-12-16T00:11:39.075Z,54747.84
2022-12-16T00:14:07.828Z,54771.69
2022-12-16T00:16:36.886Z,54771.69
2022-12-16T00:19:05.738Z,54789.59
2022-12-16T00:21:36.963Z,54777.66
2022-12-16T00:24:05.554Z,54821.41
2022-12-16T00:26:34.199Z,54807.50
2022-12-16T00:29:05.568Z,54835.34
2022-12-16T00:31:34.292Z,54821.41
2022-12-16T00:34:03.532Z,54791.59
2022-12-16T00:36:32.275Z,54819.44
2022-12-16T00:39:02.487Z,54823.41
2022-12-16T00:41:31.064Z,54775.69
2022-12-16T00:43:59.623Z,54755.78
2022-12-16T00:46:28.137Z,54831.38
2022-12-16T00:48:56.883Z,54847.28
2022-12-16T00:51:28.532Z,54871.16
2022-12-16T00:53:57.155Z,54871.16
2022-12-16T00:56:27.369Z,54853.25
2022-12-16T00:58:56.197Z,54887.06
2022-12-16T01:01:24.847Z,54899.00
2022-12-16T01:03:53.799Z,54936.78
2022-12-16T01:06:23.985Z,54940.75
2022-12-16T01:08:53.000Z,54958.66
2022-12-16T01:11:28.117Z,54970.59
2022-12-16T01:13:56.655Z,54980.53
2022-12-16T01:16:25.484Z,54984.50
2022-12-16T01:18:57.101Z,55058.09
2022-12-16T01:21:26.158Z,55050.16
2022-12-16T01:23:54.911Z,55066.06
2022-12-16T01:26:24.764Z,55095.88
2022-12-16T01:28:55.251Z,55149.59
2022-12-16T01:31:24.848Z,55117.78
2022-12-16T01:33:54.004Z,55129.69
2022-12-16T01:36:22.825Z,55153.56
2022-12-16T01:38:52.088Z,55193.34
2022-12-16T01:41:24.032Z,55247.06
2022-12-16T01:43:52.847Z,55264.97
2022-12-16T01:46:26.151Z,55312.69
2022-12-16T01:49:00.423Z,55366.41
2022-12-16T01:51:34.987Z,55362.44
2022-12-16T01:54:09.192Z,55398.22
2022-12-16T01:56:42.256Z,55438.03
2022-12-16T01:59:15.837Z,55517.59
2022-12-16T02:01:46.150Z,55483.78
2022-12-16T02:04:15.291Z,55505.66
2022-12-16T02:06:44.507Z,55471.84
2022-12-16T02:09:16.365Z,55465.88
2022-12-16T02:12:06.148Z,55499.69
2022-12-16T02:15:04.536Z,55555.38
2022-12-16T02:17:41.676Z,55607.09
2022-12-16T02:20:38.531Z,55646.88
2022-12-16T02:23:29.708Z,55408.19
2022-12-16T02:26:32.310Z,55386.28
2022-12-16T02:29:19.459Z,55432.06
2022-12-16T02:31:57.336Z,55507.63
2022-12-16T02:34:33.475Z,55658.81
2022-12-16T02:37:15.386Z,55710.56
2022-12-16T02:39:52.258Z,55698.63
2022-12-16T02:42:29.100Z,55716.50
2022-12-16T02:45:04.463Z,55692.66
2022-12-16T02:47:34.481Z,55495.69
2022-12-16T02:50:03.650Z,55428.06
2022-12-16T02:52:35.380Z,55539.47
2022-12-16T02:55:11.113Z,55621.03
2022-12-16T02:57:53.565Z,55605.13
2022-12-16T03:00:24.367Z,55634.94
2022-12-16T03:03:02.236Z,55674.75
2022-12-16T03:05:34.674Z,55591.19
2022-12-16T03:08:07.837Z,55491.72
2022-12-16T03:10:41.440Z,55459.91
2022-12-16T03:13:12.965Z,55475.81
2022-12-16T03:15:42.930Z,55539.47
2022-12-16T03:18:15.363Z,55481.78
2022-12-16T03:20:48.895Z,55549.41
2022-12-16T03:23:21.798Z,55527.53
2022-12-16T03:25:55.863Z,55507.63
2022-12-16T03:28:37.616Z,55495.69
2022-12-16T03:31:14.433Z,55467.84
2022-12-16T03:33:52.924Z,55438.03
2022-12-16T03:36:24.550Z,55416.13
2022-12-16T03:38:55.228Z,55422.09
2022-12-16T03:41:25.311Z,55354.47
2022-12-16T03:43:54.771Z,55408.19
2022-12-16T03:46:23.392Z,55374.38
2022-12-16T03:48:54.180Z,55372.38
2022-12-16T03:51:22.748Z,55312.69
2022-12-16T03:53:51.360Z,55247.06
2022-12-16T03:56:20.115Z,55217.22
2022-12-16T03:58:48.796Z,55229.16
2022-12-16T04:01:18.004Z,55169.50
2022-12-16T04:03:46.712Z,55191.38
2022-12-16T04:06:18.722Z,55147.59
2022-12-16T04:08:47.892Z,55181.41
2022-12-16T04:11:34.590Z,55197.34
2022-12-16T04:14:20.872Z,55215.22
2022-12-16T04:17:06.538Z,55249.06
2022-12-16T04:19:56.093Z,55201.31
2022-12-16T04:22:48.467Z,55127.72
2022-12-16T04:25:18.477Z,55109.81
2022-12-16T04:27:48.011Z,55109.81
2022-12-16T04:30:24.576Z,55151.59
2022-12-16T04:33:13.930Z,55187.38
2022-12-16T04:36:00.134Z,55121.75
2022-12-16T04:38:50.491Z,55161.53
2022-12-16T04:41:36.777Z,55191.38
2022-12-16T04:44:23.842Z,55217.22
2022-12-16T04:47:10.416Z,55173.47
2022-12-16T04:49:56.425Z,55165.50
2022-12-16T04:52:43.075Z,55141.63
2022-12-16T04:55:30.674Z,55133.69
2022-12-16T04:58:19.300Z,55193.34
2022-12-16T05:01:07.126Z,55153.56
2022-12-16T05:03:53.963Z,55169.50
2022-12-16T05:06:40.279Z,55117.78
2022-12-16T05:09:27.193Z,55087.94
2022-12-16T05:12:14.557Z,55058.09
2022-12-16T05:15:00.271Z,55066.06
2022-12-16T05:17:46.640Z,55074.00
2022-12-16T05:20:32.843Z,55117.78
2022-12-16T05:23:18.760Z,55169.50
2022-12-16T05:26:05.105Z,55223.19
2022-12-16T05:28:52.656Z,55276.91
2022-12-16T05:31:38.271Z,55280.88
2022-12-16T05:34:24.506Z,55328.63
2022-12-16T05:37:10.837Z,55408.19
2022-12-16T05:39:57.119Z,55418.13
2022-12-16T05:42:43.519Z,55438.03
2022-12-16T05:45:31.737Z,55459.91
2022-12-16T05:48:17.838Z,55563.34
2022-12-16T05:51:04.298Z,55609.09
2022-12-16T05:53:50.779Z,55615.06
2022-12-16T05:56:36.948Z,55627.00
2022-12-16T05:59:23.396Z,55728.44
2022-12-16T06:02:10.844Z,55726.47
2022-12-16T06:04:57.316Z,55734.41
2022-12-16T06:07:43.381Z,55714.53
2022-12-16T06:10:25.597Z,55770.22
2022-12-16T06:13:11.527Z,55853.78
2022-12-16T06:15:57.828Z,55933.38
2022-12-16T06:18:45.641Z,56012.94
2022-12-16T06:21:31.825Z,55989.06
2022-12-16T06:24:17.991Z,56034.81
2022-12-16T06:27:04.117Z,56066.66
2022-12-16T06:29:50.409Z,56072.63
2022-12-16T06:32:36.003Z,56140.28
2022-12-16T06:35:23.657Z,56192.00
2022-12-16T06:38:11.904Z,56263.63
2022-12-16T06:40:58.082Z,56307.41
2022-12-16T06:43:44.106Z,56201.97
2022-12-16T06:46:30.407Z,56223.84
2022-12-16T06:49:17.527Z,56275.56
2022-12-16T06:52:04.996Z,56192.00
2022-12-16T06:54:51.425Z,56096.50
2022-12-16T06:57:46.144Z,56128.34
2022-12-16T07:00:41.218Z,56154.22
2022-12-16T07:03:29.474Z,56152.22
2022-12-16T07:06:22.331Z,56176.09
2022-12-16T07:09:09.849Z,56239.75
2022-12-16T07:11:56.127Z,56323.31
2022-12-16T07:14:42.275Z,56442.72
2022-12-16T07:17:28.638Z,56470.56
2022-12-16T07:20:14.802Z,56562.09
2022-12-16T07:23:09.899Z,56540.22
2022-12-16T07:26:00.036Z,56589.97
2022-12-16T07:28:46.632Z,56665.56
2022-12-16T07:31:33.151Z,56794.91
2022-12-16T07:34:19.438Z,56826.75
2022-12-16T07:37:05.809Z,56976.00
2022-12-16T07:39:55.234Z,56908.34
2022-12-16T07:42:43.204Z,56952.13
2022-12-16T07:45:29.430Z,56800.91
2022-12-16T07:48:15.858Z,56659.59
2022-12-16T07:51:01.985Z,56751.16
2022-12-16T07:53:48.488Z,56884.47
2022-12-16T07:56:34.906Z,56926.25
2022-12-16T07:59:22.835Z,56999.91
2022-12-16T08:02:09.074Z,57073.53
2022-12-16T08:04:55.173Z,57246.69
2022-12-16T08:07:41.864Z,57324.31
2022-12-16T08:10:28.521Z,57308.38
2022-12-16T08:13:26.113Z,57461.63
2022-12-16T08:16:12.689Z,57421.81
2022-12-16T08:18:59.206Z,57350.19
2022-12-16T08:21:45.422Z,57356.16
2022-12-16T08:24:36.844Z,57310.38
2022-12-16T08:27:22.819Z,57521.34
2022-12-16T08:30:08.957Z,57577.09
2022-12-16T08:33:00.645Z,57778.13
2022-12-16T08:35:49.632Z,58150.38
2022-12-16T08:38:37.150Z,58421.13
2022-12-16T08:41:23.972Z,58476.88
2022-12-16T08:44:10.368Z,58508.75
2022-12-16T08:46:57.051Z,58474.91
2022-12-16T08:49:45.403Z,58514.72
2022-12-16T08:52:32.298Z,58703.88
2022-12-16T08:55:18.680Z,58588.38
2022-12-16T08:58:11.819Z,58347.47
2022-12-16T09:01:03.172Z,58540.59
2022-12-16T09:03:53.181Z,58747.66
2022-12-16T09:06:41.422Z,58723.78
2022-12-16T09:09:28.040Z,58843.25
2022-12-16T09:12:14.561Z,59361.00
2022-12-16T09:15:01.073Z,59550.19
2022-12-16T09:17:47.770Z,59466.53
2022-12-16T09:20:34.454Z,59139.94
2022-12-16T09:23:22.798Z,59450.63
2022-12-16T09:26:09.535Z,59400.81
2022-12-16T09:28:56.043Z,59454.59
2022-12-16T09:31:42.446Z,59729.44
2022-12-16T09:34:29.047Z,59827.03
2022-12-16T09:37:15.427Z,59852.94
2022-12-16T09:40:08.730Z,60058.09
2022-12-16T09:43:03.525Z,60237.38
2022-12-16T09:46:00.613Z,60390.75
2022-12-16T09:48:50.040Z,60360.88
2022-12-16T09:51:36.944Z,60651.72
2022-12-16T09:54:26.691Z,60938.63
2022-12-16T09:57:14.611Z,60791.19
2022-12-16T10:00:04.908Z,60671.66
2022-12-16T10:02:52.032Z,60773.25
2022-12-16T10:05:46.369Z,60717.47
2022-12-16T10:08:41.198Z,60412.66
2022-12-16T10:11:35.428Z,60169.63
2022-12-16T10:14:38.434Z,60117.84
2022-12-16T10:17:31.140Z,60153.72
2022-12-16T10:20:24.074Z,60141.75
2022-12-16T10:23:17.187Z,60663.69
2022-12-16T10:26:08.728Z,60476.41
2022-12-16T10:29:04.082Z,60677.63
2022-12-16T10:31:53.416Z,60751.34
2022-12-16T10:34:47.770Z,60277.22
2022-12-16T10:37:40.645Z,61195.66
2022-12-16T10:40:34.607Z,60986.44
2022-12-16T10:43:24.351Z,60763.31
2022-12-16T10:46:13.223Z,61032.28
2022-12-16T10:49:00.933Z,61424.81
2022-12-16T10:51:48.729Z,61281.34
2022-12-16T10:54:47.371Z,60510.28
2022-12-16T10:57:42.864Z,60508.28
2022-12-16T11:00:33.148Z,61428.81
2022-12-16T11:03:38.021Z,61508.50
2022-12-16T11:06:27.451Z,61444.75
2022-12-16T11:09:13.849Z,60876.88
2022-12-16T11:11:59.811Z,60687.59
2022-12-16T11:15:05.916Z,60739.41
2022-12-16T11:18:02.933Z,60966.53
2022-12-16T11:20:48.995Z,60637.78
2022-12-16T11:23:39.184Z,61217.59
2022-12-16T11:26:34.531Z,61536.41
2022-12-16T11:29:25.652Z,60649.75
2022-12-16T11:32:16.944Z,59412.78
2022-12-16T11:35:09.775Z,59536.25
2022-12-16T11:37:57.351Z,59014.50
2022-12-16T11:40:45.434Z,58285.75
2022-12-16T11:43:34.744Z,58546.56
2022-12-16T11:46:27.552Z,58968.69
2022-12-16T11:49:23.467Z,59434.69
2022-12-16T11:52:35.837Z,59335.09
2022-12-16T11:56:03.621Z,59014.50
2022-12-16T11:58:49.918Z,59396.84
2022-12-16T12:01:45.417Z,58779.53
2022-12-16T12:04:33.778Z,58687.94
2022-12-16T12:07:45.358Z,59086.19
2022-12-16T12:11:01.448Z,59592.03
2022-12-16T12:14:07.439Z,58885.06
2022-12-16T12:17:07.336Z,59078.22
2022-12-16T12:20:09.288Z,59384.91
2022-12-16T12:22:57.680Z,59259.44
2022-12-16T12:25:52.026Z,59231.56
2022-12-16T12:28:46.883Z,59805.13
2022-12-16T12:31:49.239Z,59436.69
2022-12-16T12:34:47.904Z,59233.53
2022-12-16T12:37:42.123Z,59145.91
2022-12-16T12:40:47.917Z,59044.38
2022-12-16T12:43:46.684Z,58695.91
2022-12-16T12:46:41.462Z,58863.16
2022-12-16T12:49:34.990Z,59181.75
2022-12-16T12:52:34.655Z,58815.38
2022-12-16T12:55:29.024Z,58691.91
2022-12-16T12:58:18.278Z,58453.00
2022-12-16T13:01:09.856Z,58823.34
2022-12-16T13:04:03.199Z,58948.78
2022-12-16T13:06:50.615Z,59205.66
2022-12-16T13:09:50.340Z,59488.47
2022-12-16T13:12:48.499Z,60532.19
2022-12-16T13:15:52.160Z,61512.50
2022-12-16T13:18:48.910Z,62660.53
2022-12-16T13:22:05.014Z,62987.47
2022-12-16T13:25:07.695Z,64792.16
2022-12-16T13:28:13.504Z,66693.63
2022-12-16T13:31:20.251Z,70164.06
2022-12-16T13:34:12.276Z,73234.09
2022-12-16T13:37:03.212Z,74002.03
2022-12-16T13:40:05.669Z,74258.06
2022-12-16T13:43:23.282Z,76819.28
2022-12-16T13:46:40.737Z,77844.31
2022-12-16T13:49:59.183Z,79382.44
2022-12-16T13:53:11.729Z,79382.44
2022-12-16T13:56:16.494Z,79638.84
2022-12-16T13:59:07.105Z,79382.44
2022-12-16T14:02:02.280Z,80664.72
2022-12-16T14:04:58.405Z,81690.91
2022-12-16T14:07:58.215Z,82204.09
2022-12-16T14:10:53.541Z,82717.38
2022-12-16T14:13:50.537Z,82717.38
2022-12-16T14:16:51.704Z,82974.03
2022-12-16T14:19:49.745Z,82974.03
2022-12-16T14:22:52.416Z,82974.03
2022-12-16T14:25:41.112Z,83487.44
2022-12-16T14:28:41.707Z,83744.16
2022-12-16T14:31:35.440Z,84000.91
2022-12-16T14:34:24.549Z,84257.66
2022-12-16T14:37:11.186Z,83487.44
2022-12-16T14:39:59.183Z,82717.38
2022-12-16T14:42:47.695Z,83487.44
2022-12-16T14:45:46.065Z,83744.16
2022-12-16T14:48:49.675Z,84000.91
2022-12-16T14:51:43.634Z,83744.16
2022-12-16T14:54:42.040Z,84000.91
2022-12-16T14:57:33.508Z,83744.16
2022-12-16T15:00:35.335Z,83744.16
2022-12-16T15:03:30.313Z,83487.44
2022-12-16T15:06:20.183Z,82974.03
2022-12-16T15:09:10.685Z,83487.44
2022-12-16T15:11:58.229Z,83487.44
2022-12-16T15:14:58.071Z,83744.16
2022-12-16T15:17:48.219Z,83744.16
2022-12-16T15:20:40.013Z,83487.44
2022-12-16T15:23:38.127Z,83230.72
2022-12-16T15:26:25.532Z,83487.44
2022-12-16T15:29:12.413Z,84000.91
2022-12-16T15:32:03.199Z,84514.44
2022-12-16T15:34:54.896Z,84771.25
2022-12-16T15:37:44.281Z,85028.06
2022-12-16T15:40:45.834Z,85284.91
2022-12-16T15:43:44.242Z,85541.78
2022-12-16T15:46:36.283Z,85541.78
2022-12-16T15:49:23.483Z,85541.78
2022-12-16T15:52:10.991Z,85541.78
2022-12-16T15:55:10.146Z,85798.66
2022-12-16T15:57:58.911Z,85798.66
2022-12-16T16:00:47.215Z,85541.78
2022-12-16T16:03:43.022Z,85284.91
2022-12-16T16:06:36.680Z,85541.78
2022-12-16T16:09:32.264Z,86312.47
2022-12-16T16:12:18.785Z,86569.41
2022-12-16T16:15:06.626Z,87083.34
2022-12-16T16:17:53.558Z,87083.34
2022-12-16T16:20:39.822Z,87340.31
2022-12-16T16:23:27.867Z,87340.31
2022-12-16T16:26:14.836Z,87340.31
2022-12-16T16:29:01.349Z,87597.34
2022-12-16T16:31:48.964Z,88368.50
2022-12-16T16:34:35.690Z,88625.56
2022-12-16T16:37:22.196Z,88625.56
2022-12-16T16:40:08.383Z,89139.81
2022-12-16T16:42:55.535Z,89139.81
2022-12-16T16:45:41.915Z,88882.69
2022-12-16T16:48:32.815Z,88882.69
2022-12-16T16:51:20.229Z,89139.81
2022-12-16T16:54:03.135Z,89396.97
2022-12-16T16:56:52.144Z,89654.13
2022-12-16T16:59:41.610Z,89396.97
2022-12-16T17:02:40.565Z,89396.97
2022-12-16T17:05:30.239Z,89654.13
2022-12-16T17:08:16.739Z,89911.31
2022-12-16T17:11:03.106Z,90168.50
2022-12-16T17:13:49.602Z,90425.72
2022-12-16T17:16:36.164Z,90425.72
2022-12-16T17:19:22.620Z,90425.72
2022-12-16T17:22:10.546Z,90425.72
2022-12-16T17:24:57.272Z,90682.97
2022-12-16T17:27:45.114Z,90940.22
2022-12-16T17:30:47.746Z,90940.22
2022-12-16T17:33:35.859Z,90940.22
2022-12-16T17:36:28.561Z,90940.22
2022-12-16T17:39:20.021Z,91197.50
2022-12-16T17:42:06.666Z,91454.81
2022-12-16T17:44:53.535Z,91454.81
2022-12-16T17:47:41.108Z,91712.13
2022-12-16T17:50:29.554Z,91712.13
2022-12-16T17:53:16.657Z,92226.81
2022-12-16T17:56:04.478Z,92226.81
2022-12-16T17:58:51.989Z,92484.19
2022-12-16T18:01:38.881Z,92484.19
2022-12-16T18:04:25.084Z,92226.81
2022-12-16T18:07:11.657Z,92226.81
2022-12-16T18:09:57.953Z,92741.59
2022-12-16T18:12:46.502Z,92999.00
2022-12-16T18:15:33.984Z,92999.00
2022-12-16T18:18:20.480Z,92999.00
2022-12-16T18:21:07.207Z,92999.00
2022-12-16T18:23:54.112Z,93256.44
2022-12-16T18:26:41.361Z,93256.44
2022-12-16T18:29:29.580Z,93513.91
2022-12-16T18:32:16.091Z,93771.38
2022-12-16T18:35:02.682Z,94028.84
2022-12-16T18:37:48.917Z,94286.38
2022-12-16T18:40:35.649Z,94286.38
2022-12-16T18:43:22.110Z,94286.38
2022-12-16T18:46:18.112Z,94801.44
2022-12-16T18:49:04.841Z,95316.59
2022-12-16T18:51:51.062Z,95316.59
2022-12-16T18:54:37.852Z,95574.19
2022-12-16T18:57:24.347Z,95831.81
2022-12-16T19:00:10.600Z,95831.81
2022-12-16T19:02:58.905Z,95831.81
2022-12-16T19:05:45.704Z,95831.81
2022-12-16T19:08:32.554Z,95574.19
2022-12-16T19:11:19.496Z,95574.19
2022-12-16T19:14:05.934Z,95574.19
2022-12-16T19:16:52.498Z,95574.19
2022-12-16T19:19:39.956Z,95831.81
2022-12-16T19:22:26.594Z,95831.81
2022-12-16T19:25:13.001Z,96089.47
2022-12-16T19:27:59.530Z,96347.13
2022-12-16T19:30:46.101Z,96347.13
2022-12-16T19:33:32.544Z,96604.81
2022-12-16T19:36:20.663Z,96604.81
2022-12-16T19:39:07.099Z,96604.81
2022-12-16T19:41:53.542Z,96604.81
2022-12-16T19:44:42.850Z,96347.13
2022-12-16T19:47:49.664Z,96089.47
2022-12-16T19:50:38.462Z,95574.19
2022-12-16T19:53:26.013Z,96089.47
2022-12-16T19:56:38.485Z,96089.47
2022-12-16T19:59:30.807Z,96347.13
2022-12-16T20:02:20.199Z,96604.81
2022-12-16T20:05:07.201Z,96862.50
2022-12-16T20:07:53.703Z,97120.22
2022-12-16T20:10:44.224Z,97120.22
2022-12-16T20:13:31.548Z,97120.22
2022-12-16T20:16:21.660Z,97120.22
2022-12-16T20:19:19.660Z,97120.22
2022-12-16T20:22:08.269Z,97377.97
2022-12-16T20:24:58.412Z,97377.97
2022-12-16T20:27:47.597Z,97377.97
2022-12-16T20:30:35.953Z,97120.22
2022-12-16T20:33:22.716Z,97377.97
2022-12-16T20:36:17.965Z,97377.97
2022-12-16T20:39:05.765Z,97377.97
2022-12-16T20:41:55.946Z,97377.97
2022-12-16T20:44:44.291Z,97635.72
2022-12-16T20:47:30.758Z,97377.97
2022-12-16T20:50:17.246Z,97377.97
2022-12-16T20:53:04.228Z,97635.72
2022-12-16T20:55:50.553Z,97635.72
2022-12-16T20:58:39.824Z,97893.50
2022-12-16T21:01:27.485Z,97893.50
2022-12-16T21:04:13.976Z,98151.31
2022-12-16T21:07:00.275Z,98151.31
2022-12-16T21:09:46.706Z,98151.31
2022-12-16T21:12:33.133Z,97893.50
2022-12-16T21:15:19.952Z,97893.50
2022-12-16T21:18:08.075Z,98151.31
2022-12-16T21:20:56.003Z,98151.31
2022-12-16T21:23:42.995Z,98151.31
2022-12-16T21:26:29.586Z,98151.31
2022-12-16T21:29:15.822Z,98151.31
2022-12-16T21:32:02.367Z,98151.31
2022-12-16T21:34:51.779Z,97893.50
2022-12-16T21:37:38.466Z,98151.31
2022-12-16T21:40:26.649Z,98151.31
2022-12-16T21:43:13.623Z,98409.13
2022-12-16T21:46:00.154Z,98151.31
2022-12-16T21:48:46.488Z,98151.31
2022-12-16T21:51:34.593Z,98151.31
2022-12-16T21:54:20.871Z,98409.13
2022-12-16T21:57:07.392Z,98409.13
2022-12-16T21:59:53.802Z,98151.31
2022-12-16T22:02:43.223Z,97893.50
2022-12-16T22:05:25.985Z,97893.50
2022-12-16T22:08:14.139Z,97893.50
2022-12-16T22:11:00.978Z,97893.50
2022-12-16T22:13:49.591Z,97893.50
2022-12-16T22:16:35.911Z,97893.50
2022-12-16T22:19:22.275Z,97893.50
2022-12-16T22:22:09.227Z,98151.31
2022-12-16T22:24:57.702Z,98151.31
2022-12-16T22:27:44.125Z,98151.31
2022-12-16T22:30:31.066Z,98151.31
2022-12-16T22:33:17.615Z,98151.31
2022-12-16T22:36:04.008Z,98409.13
2022-12-16T22:38:51.900Z,98409.13
2022-12-16T22:41:39.542Z,98151.31
2022-12-16T22:44:26.976Z,98151.31
2022-12-16T22:47:15.544Z,98151.31
2022-12-16T22:50:02.967Z,98151.31
2022-12-16T22:52:49.746Z,98151.31
2022-12-16T22:55:35.915Z,98151.31
2022-12-16T22:58:27.386Z,98151.31
2022-12-16T23:01:13.859Z,97635.72
2022-12-16T23:04:00.427Z,97893.50
2022-12-16T23:06:46.741Z,97893.50
2022-12-16T23:09:32.901Z,97893.50
2022-12-16T23:12:19.392Z,97893.50
2022-12-16T23:15:07.389Z,97635.72
2022-12-16T23:17:55.787Z,97635.72
2022-12-16T23:20:42.297Z,97377.97
2022-12-16T23:23:28.666Z,97120.22
2022-12-16T23:26:15.990Z,97120.22
2022-12-16T23:29:02.353Z,97635.72
2022-12-16T23:31:50.478Z,97893.50
2022-12-16T23:34:40.881Z,97635.72
2022-12-16T23:37:31.740Z,97635.72
2022-12-16T23:40:18.433Z,97635.72
2022-12-16T23:43:06.037Z,97635.72
2022-12-16T23:45:52.852Z,97635.72
2022-12-16T23:48:43.875Z,95831.81
2022-12-16T23:51:30.333Z,95316.59
2022-12-16T23:54:20.237Z,95831.81
2022-12-16T23:57:09.613Z,96089.47
2022-12-16T23:59:56.505Z,96347.13
